sensor_id;sensor_type;location;lat;lon;timestamp;P1;durP1;ratioP1;P2;durP2;ratioP2
41530;SDS011;58990;46.284;13.126;2022-08-03T00:01:27;4.07;;;2.60;;
41530;SDS011;58990;46.284;13.126;2022-08-03T00:03:52;2.75;;;2.55;;
41530;SDS011;58990;46.284;13.126;2022-08-03T00:06:18;2.85;;;2.35;;
41530;SDS011;58990;46.284;13.126;2022-08-03T00:08:43;3.95;;;2.53;;
41530;SDS011;58990;46.284;13.126;2022-08-03T00:11:09;2.47;;;2.28;;
41530;SDS011;58990;46.284;13.126;2022-08-03T00:13:34;3.50;;;2.58;;
41530;SDS011;58990;46.284;13.126;2022-08-03T00:16:00;2.60;;;2.40;;
41530;SDS011;58990;46.284;13.126;2022-08-03T00:18:25;4.28;;;2.90;;
41530;SDS011;58990;46.284;13.126;2022-08-03T00:20:51;2.83;;;2.60;;
41530;SDS011;58990;46.284;13.126;2022-08-03T00:23:16;4.30;;;2.75;;
41530;SDS011;58990;46.284;13.126;2022-08-03T00:25:42;5.35;;;2.88;;
41530;SDS011;58990;46.284;13.126;2022-08-03T00:28:08;3.58;;;2.38;;
41530;SDS011;58990;46.284;13.126;2022-08-03T00:30:33;3.88;;;2.50;;
41530;SDS011;58990;46.284;13.126;2022-08-03T00:32:59;4.95;;;2.60;;
41530;SDS011;58990;46.284;13.126;2022-08-03T00:35:26;2.85;;;2.42;;
41530;SDS011;58990;46.284;13.126;2022-08-03T00:37:52;3.33;;;2.80;;
41530;SDS011;58990;46.284;13.126;2022-08-03T00:40:18;4.35;;;2.67;;
41530;SDS011;58990;46.284;13.126;2022-08-03T00:42:45;4.70;;;2.60;;
41530;SDS011;58990;46.284;13.126;2022-08-03T00:45:17;3.15;;;2.85;;
41530;SDS011;58990;46.284;13.126;2022-08-03T00:47:44;3.20;;;2.80;;
41530;SDS011;58990;46.284;13.126;2022-08-03T00:50:10;3.33;;;2.55;;
41530;SDS011;58990;46.284;13.126;2022-08-03T00:52:36;8.15;;;3.70;;
41530;SDS011;58990;46.284;13.126;2022-08-03T00:55:03;4.30;;;2.67;;
41530;SDS011;58990;46.284;13.126;2022-08-03T00:57:29;3.67;;;2.47;;
41530;SDS011;58990;46.284;13.126;2022-08-03T00:59:56;4.07;;;2.90;;
41530;SDS011;58990;46.284;13.126;2022-08-03T01:02:21;4.32;;;2.30;;
41530;SDS011;58990;46.284;13.126;2022-08-03T01:04:47;3.97;;;2.60;;
41530;SDS011;58990;46.284;13.126;2022-08-03T01:15:34;2.78;;;2.53;;
41530;SDS011;58990;46.284;13.126;2022-08-03T01:18:11;3.90;;;3.05;;
41530;SDS011;58990;46.284;13.126;2022-08-03T01:20:43;2.60;;;2.40;;
41530;SDS011;58990;46.284;13.126;2022-08-03T01:26:22;4.55;;;2.53;;
41530;SDS011;58990;46.284;13.126;2022-08-03T01:31:48;2.78;;;2.53;;
41530;SDS011;58990;46.284;13.126;2022-08-03T01:34:26;3.25;;;2.78;;
41530;SDS011;58990;46.284;13.126;2022-08-03T01:36:55;5.85;;;2.42;;
41530;SDS011;58990;46.284;13.126;2022-08-03T01:39:24;3.28;;;2.47;;
41530;SDS011;58990;46.284;13.126;2022-08-03T01:41:54;2.47;;;2.28;;
41530;SDS011;58990;46.284;13.126;2022-08-03T01:44:24;2.83;;;2.63;;
41530;SDS011;58990;46.284;13.126;2022-08-03T01:46:53;3.30;;;2.70;;
41530;SDS011;58990;46.284;13.126;2022-08-03T01:49:20;4.20;;;2.53;;
41530;SDS011;58990;46.284;13.126;2022-08-03T01:51:46;2.55;;;2.35;;
41530;SDS011;58990;46.284;13.126;2022-08-03T01:54:13;3.97;;;2.80;;
41530;SDS011;58990;46.284;13.126;2022-08-03T01:56:40;2.70;;;2.50;;
41530;SDS011;58990;46.284;13.126;2022-08-03T01:59:07;3.33;;;2.47;;
41530;SDS011;58990;46.284;13.126;2022-08-03T02:01:36;3.28;;;2.40;;
41530;SDS011;58990;46.284;13.126;2022-08-03T02:04:02;4.53;;;2.47;;
41530;SDS011;58990;46.284;13.126;2022-08-03T02:06:31;3.03;;;2.72;;
41530;SDS011;58990;46.284;13.126;2022-08-03T02:08:58;3.78;;;2.58;;
41530;SDS011;58990;46.284;13.126;2022-08-03T02:11:26;6.53;;;2.92;;
41530;SDS011;58990;46.284;13.126;2022-08-03T02:13:54;4.78;;;2.88;;
41530;SDS011;58990;46.284;13.126;2022-08-03T02:16:22;2.50;;;2.30;;
41530;SDS011;58990;46.284;13.126;2022-08-03T02:18:48;4.35;;;2.45;;
41530;SDS011;58990;46.284;13.126;2022-08-03T02:21:15;4.13;;;2.90;;
41530;SDS011;58990;46.284;13.126;2022-08-03T02:23:42;3.20;;;2.63;;
41530;SDS011;58990;46.284;13.126;2022-08-03T02:26:08;3.42;;;2.58;;
41530;SDS011;58990;46.284;13.126;2022-08-03T02:28:39;2.95;;;2.60;;
41530;SDS011;58990;46.284;13.126;2022-08-03T02:31:10;2.53;;;2.38;;
41530;SDS011;58990;46.284;13.126;2022-08-03T02:33:43;3.70;;;2.85;;
41530;SDS011;58990;46.284;13.126;2022-08-03T02:36:14;4.32;;;2.53;;
41530;SDS011;58990;46.284;13.126;2022-08-03T02:38:43;2.83;;;2.40;;
41530;SDS011;58990;46.284;13.126;2022-08-03T02:41:17;3.00;;;2.50;;
41530;SDS011;58990;46.284;13.126;2022-08-03T02:43:49;2.92;;;2.70;;
41530;SDS011;58990;46.284;13.126;2022-08-03T02:48:44;6.68;;;3.20;;
41530;SDS011;58990;46.284;13.126;2022-08-03T02:51:11;2.40;;;2.20;;
41530;SDS011;58990;46.284;13.126;2022-08-03T02:53:38;4.50;;;2.63;;
41530;SDS011;58990;46.284;13.126;2022-08-03T02:56:05;2.95;;;2.63;;
41530;SDS011;58990;46.284;13.126;2022-08-03T02:58:32;4.53;;;2.67;;
41530;SDS011;58990;46.284;13.126;2022-08-03T03:00:59;4.53;;;2.60;;
41530;SDS011;58990;46.284;13.126;2022-08-03T03:03:27;3.67;;;2.70;;
41530;SDS011;58990;46.284;13.126;2022-08-03T03:05:53;2.85;;;2.55;;
41530;SDS011;58990;46.284;13.126;2022-08-03T03:08:20;3.13;;;2.72;;
41530;SDS011;58990;46.284;13.126;2022-08-03T03:10:47;3.00;;;2.67;;
41530;SDS011;58990;46.284;13.126;2022-08-03T03:13:14;4.10;;;2.75;;
41530;SDS011;58990;46.284;13.126;2022-08-03T03:15:42;3.63;;;2.40;;
41530;SDS011;58990;46.284;13.126;2022-08-03T03:18:09;2.75;;;2.50;;
41530;SDS011;58990;46.284;13.126;2022-08-03T03:20:37;3.15;;;2.85;;
41530;SDS011;58990;46.284;13.126;2022-08-03T03:23:04;2.55;;;2.35;;
41530;SDS011;58990;46.284;13.126;2022-08-03T03:25:31;2.70;;;2.50;;
41530;SDS011;58990;46.284;13.126;2022-08-03T03:27:58;4.13;;;2.63;;
41530;SDS011;58990;46.284;13.126;2022-08-03T03:30:25;3.90;;;2.50;;
41530;SDS011;58990;46.284;13.126;2022-08-03T03:32:51;3.65;;;2.72;;
41530;SDS011;58990;46.284;13.126;2022-08-03T03:35:17;3.17;;;2.33;;
41530;SDS011;58990;46.284;13.126;2022-08-03T03:37:42;3.33;;;2.53;;
41530;SDS011;58990;46.284;13.126;2022-08-03T03:40:08;2.83;;;2.55;;
41530;SDS011;58990;46.284;13.126;2022-08-03T03:42:34;3.20;;;2.90;;
41530;SDS011;58990;46.284;13.126;2022-08-03T03:45:03;4.13;;;2.67;;
41530;SDS011;58990;46.284;13.126;2022-08-03T03:47:30;4.03;;;2.70;;
41530;SDS011;58990;46.284;13.126;2022-08-03T03:49:57;6.35;;;2.67;;
41530;SDS011;58990;46.284;13.126;2022-08-03T03:52:23;3.38;;;2.50;;
41530;SDS011;58990;46.284;13.126;2022-08-03T03:54:49;2.95;;;2.65;;
41530;SDS011;58990;46.284;13.126;2022-08-03T03:57:14;3.22;;;2.95;;
41530;SDS011;58990;46.284;13.126;2022-08-03T03:59:41;3.78;;;3.00;;
41530;SDS011;58990;46.284;13.126;2022-08-03T04:02:07;4.32;;;2.80;;
41530;SDS011;58990;46.284;13.126;2022-08-03T04:04:34;6.30;;;2.90;;
41530;SDS011;58990;46.284;13.126;2022-08-03T04:07:19;7.05;;;2.97;;
41530;SDS011;58990;46.284;13.126;2022-08-03T04:10:19;4.95;;;2.75;;
41530;SDS011;58990;46.284;13.126;2022-08-03T04:15:34;6.05;;;2.85;;
41530;SDS011;58990;46.284;13.126;2022-08-03T04:18:03;5.53;;;2.63;;
41530;SDS011;58990;46.284;13.126;2022-08-03T04:20:34;5.10;;;2.53;;
41530;SDS011;58990;46.284;13.126;2022-08-03T04:23:01;2.38;;;2.22;;
41530;SDS011;58990;46.284;13.126;2022-08-03T04:25:29;3.78;;;2.75;;
41530;SDS011;58990;46.284;13.126;2022-08-03T04:27:57;3.80;;;2.53;;
41530;SDS011;58990;46.284;13.126;2022-08-03T04:30:25;4.28;;;2.55;;
41530;SDS011;58990;46.284;13.126;2022-08-03T04:32:54;4.07;;;2.78;;
41530;SDS011;58990;46.284;13.126;2022-08-03T04:35:21;4.00;;;2.60;;
41530;SDS011;58990;46.284;13.126;2022-08-03T04:37:50;4.70;;;3.00;;
41530;SDS011;58990;46.284;13.126;2022-08-03T04:40:19;3.75;;;2.70;;
41530;SDS011;58990;46.284;13.126;2022-08-03T04:42:47;5.38;;;2.70;;
41530;SDS011;58990;46.284;13.126;2022-08-03T04:45:15;3.30;;;2.80;;
41530;SDS011;58990;46.284;13.126;2022-08-03T04:47:41;2.83;;;2.53;;
41530;SDS011;58990;46.284;13.126;2022-08-03T04:50:07;2.72;;;2.53;;
41530;SDS011;58990;46.284;13.126;2022-08-03T04:52:33;2.97;;;2.55;;
41530;SDS011;58990;46.284;13.126;2022-08-03T04:54:59;2.65;;;2.33;;
41530;SDS011;58990;46.284;13.126;2022-08-03T04:57:25;4.18;;;2.00;;
41530;SDS011;58990;46.284;13.126;2022-08-03T04:59:51;2.70;;;2.25;;
41530;SDS011;58990;46.284;13.126;2022-08-03T05:02:19;3.90;;;2.67;;
41530;SDS011;58990;46.284;13.126;2022-08-03T05:04:45;3.25;;;2.28;;
41530;SDS011;58990;46.284;13.126;2022-08-03T05:07:14;3.70;;;2.60;;
41530;SDS011;58990;46.284;13.126;2022-08-03T05:12:06;61.35;;;9.63;;
41530;SDS011;58990;46.284;13.126;2022-08-03T05:14:33;4.72;;;2.75;;
41530;SDS011;58990;46.284;13.126;2022-08-03T05:17:01;4.03;;;2.80;;
41530;SDS011;58990;46.284;13.126;2022-08-03T05:19:26;24.83;;;4.78;;
41530;SDS011;58990;46.284;13.126;2022-08-03T05:21:52;12.95;;;3.55;;
41530;SDS011;58990;46.284;13.126;2022-08-03T05:24:18;3.33;;;2.55;;
41530;SDS011;58990;46.284;13.126;2022-08-03T05:26:43;3.97;;;2.55;;
41530;SDS011;58990;46.284;13.126;2022-08-03T05:29:09;5.15;;;2.70;;
41530;SDS011;58990;46.284;13.126;2022-08-03T05:31:34;2.95;;;2.40;;
41530;SDS011;58990;46.284;13.126;2022-08-03T05:34:00;3.03;;;2.72;;
41530;SDS011;58990;46.284;13.126;2022-08-03T05:36:25;2.78;;;2.55;;
41530;SDS011;58990;46.284;13.126;2022-08-03T05:38:51;3.97;;;2.20;;
41530;SDS011;58990;46.284;13.126;2022-08-03T05:41:16;3.50;;;2.00;;
41530;SDS011;58990;46.284;13.126;2022-08-03T05:43:42;2.08;;;1.95;;
41530;SDS011;58990;46.284;13.126;2022-08-03T05:46:08;4.90;;;2.22;;
41530;SDS011;58990;46.284;13.126;2022-08-03T05:48:33;4.40;;;2.35;;
41530;SDS011;58990;46.284;13.126;2022-08-03T05:50:59;3.33;;;2.20;;
41530;SDS011;58990;46.284;13.126;2022-08-03T05:53:24;2.42;;;2.22;;
41530;SDS011;58990;46.284;13.126;2022-08-03T05:55:50;4.15;;;1.83;;
41530;SDS011;58990;46.284;13.126;2022-08-03T05:58:16;3.65;;;2.58;;
41530;SDS011;58990;46.284;13.126;2022-08-03T06:00:41;5.05;;;2.20;;
41530;SDS011;58990;46.284;13.126;2022-08-03T06:03:07;4.50;;;2.63;;
41530;SDS011;58990;46.284;13.126;2022-08-03T06:05:32;2.75;;;2.55;;
41530;SDS011;58990;46.284;13.126;2022-08-03T06:08:00;4.72;;;2.80;;
41530;SDS011;58990;46.284;13.126;2022-08-03T06:10:27;7.30;;;2.63;;
41530;SDS011;58990;46.284;13.126;2022-08-03T06:12:52;3.85;;;2.25;;
41530;SDS011;58990;46.284;13.126;2022-08-03T06:15:18;3.88;;;2.40;;
41530;SDS011;58990;46.284;13.126;2022-08-03T06:17:44;4.35;;;2.50;;
41530;SDS011;58990;46.284;13.126;2022-08-03T06:20:11;4.55;;;2.30;;
41530;SDS011;58990;46.284;13.126;2022-08-03T06:22:37;3.05;;;2.03;;
41530;SDS011;58990;46.284;13.126;2022-08-03T06:25:02;3.10;;;2.28;;
41530;SDS011;58990;46.284;13.126;2022-08-03T06:27:28;6.15;;;2.78;;
41530;SDS011;58990;46.284;13.126;2022-08-03T06:29:53;4.55;;;2.15;;
41530;SDS011;58990;46.284;13.126;2022-08-03T06:32:19;9.05;;;2.83;;
41530;SDS011;58990;46.284;13.126;2022-08-03T06:34:47;6.13;;;2.80;;
41530;SDS011;58990;46.284;13.126;2022-08-03T06:37:12;8.85;;;3.08;;
41530;SDS011;58990;46.284;13.126;2022-08-03T06:39:38;4.72;;;2.42;;
41530;SDS011;58990;46.284;13.126;2022-08-03T06:42:03;4.57;;;2.58;;
41530;SDS011;58990;46.284;13.126;2022-08-03T06:44:29;3.17;;;2.38;;
41530;SDS011;58990;46.284;13.126;2022-08-03T06:46:55;2.65;;;2.20;;
41530;SDS011;58990;46.284;13.126;2022-08-03T06:49:20;3.95;;;2.38;;
41530;SDS011;58990;46.284;13.126;2022-08-03T06:51:46;3.92;;;2.40;;
41530;SDS011;58990;46.284;13.126;2022-08-03T06:54:11;11.60;;;2.90;;
41530;SDS011;58990;46.284;13.126;2022-08-03T06:56:37;7.50;;;2.30;;
41530;SDS011;58990;46.284;13.126;2022-08-03T06:59:02;3.60;;;2.20;;
41530;SDS011;58990;46.284;13.126;2022-08-03T07:01:28;2.97;;;2.20;;
41530;SDS011;58990;46.284;13.126;2022-08-03T07:03:53;8.95;;;2.92;;
41530;SDS011;58990;46.284;13.126;2022-08-03T07:06:20;2.42;;;2.03;;
41530;SDS011;58990;46.284;13.126;2022-08-03T07:08:45;5.80;;;1.98;;
41530;SDS011;58990;46.284;13.126;2022-08-03T07:11:11;2.72;;;1.95;;
41530;SDS011;58990;46.284;13.126;2022-08-03T07:13:36;3.47;;;2.03;;
41530;SDS011;58990;46.284;13.126;2022-08-03T07:16:02;2.38;;;2.17;;
41530;SDS011;58990;46.284;13.126;2022-08-03T07:18:28;3.45;;;2.30;;
41530;SDS011;58990;46.284;13.126;2022-08-03T07:20:53;2.50;;;2.30;;
41530;SDS011;58990;46.284;13.126;2022-08-03T07:23:19;2.00;;;1.90;;
41530;SDS011;58990;46.284;13.126;2022-08-03T07:25:44;5.55;;;2.25;;
41530;SDS011;58990;46.284;13.126;2022-08-03T07:28:10;4.70;;;2.05;;
41530;SDS011;58990;46.284;13.126;2022-08-03T07:30:35;2.20;;;2.00;;
41530;SDS011;58990;46.284;13.126;2022-08-03T07:33:01;4.10;;;2.00;;
41530;SDS011;58990;46.284;13.126;2022-08-03T07:35:26;5.35;;;1.80;;
41530;SDS011;58990;46.284;13.126;2022-08-03T07:37:52;3.38;;;2.10;;
41530;SDS011;58990;46.284;13.126;2022-08-03T07:40:18;3.72;;;2.00;;
41530;SDS011;58990;46.284;13.126;2022-08-03T07:42:44;2.10;;;1.80;;
41530;SDS011;58990;46.284;13.126;2022-08-03T07:45:09;4.72;;;1.90;;
41530;SDS011;58990;46.284;13.126;2022-08-03T07:47:35;4.50;;;1.90;;
41530;SDS011;58990;46.284;13.126;2022-08-03T07:50:00;4.40;;;1.95;;
41530;SDS011;58990;46.284;13.126;2022-08-03T07:52:26;3.78;;;1.90;;
41530;SDS011;58990;46.284;13.126;2022-08-03T07:55:11;2.20;;;1.83;;
41530;SDS011;58990;46.284;13.126;2022-08-03T07:57:37;2.00;;;1.70;;
41530;SDS011;58990;46.284;13.126;2022-08-03T08:00:03;3.28;;;1.63;;
41530;SDS011;58990;46.284;13.126;2022-08-03T08:02:30;4.03;;;2.10;;
41530;SDS011;58990;46.284;13.126;2022-08-03T08:04:56;10.07;;;2.35;;
41530;SDS011;58990;46.284;13.126;2022-08-03T08:07:21;5.53;;;2.00;;
41530;SDS011;58990;46.284;13.126;2022-08-03T08:09:47;24.58;;;3.38;;
41530;SDS011;58990;46.284;13.126;2022-08-03T08:12:13;1.63;;;1.52;;
41530;SDS011;58990;46.284;13.126;2022-08-03T08:14:38;2.60;;;1.70;;
41530;SDS011;58990;46.284;13.126;2022-08-03T08:17:05;1.98;;;1.88;;
41530;SDS011;58990;46.284;13.126;2022-08-03T08:19:31;3.90;;;1.90;;
41530;SDS011;58990;46.284;13.126;2022-08-03T08:21:56;3.33;;;1.90;;
41530;SDS011;58990;46.284;13.126;2022-08-03T08:24:22;2.40;;;1.80;;
41530;SDS011;58990;46.284;13.126;2022-08-03T08:26:47;3.85;;;1.90;;
41530;SDS011;58990;46.284;13.126;2022-08-03T08:29:13;2.10;;;1.90;;
41530;SDS011;58990;46.284;13.126;2022-08-03T08:31:38;2.67;;;1.95;;
41530;SDS011;58990;46.284;13.126;2022-08-03T08:34:04;3.08;;;1.65;;
41530;SDS011;58990;46.284;13.126;2022-08-03T08:36:34;1.92;;;1.60;;
41530;SDS011;58990;46.284;13.126;2022-08-03T08:39:00;2.10;;;1.50;;
41530;SDS011;58990;46.284;13.126;2022-08-03T08:41:26;1.50;;;1.40;;
41530;SDS011;58990;46.284;13.126;2022-08-03T08:43:52;2.10;;;1.60;;
41530;SDS011;58990;46.284;13.126;2022-08-03T08:46:19;3.63;;;1.13;;
41530;SDS011;58990;46.284;13.126;2022-08-03T08:48:45;2.78;;;1.67;;
41530;SDS011;58990;46.284;13.126;2022-08-03T08:51:12;2.80;;;1.45;;
41530;SDS011;58990;46.284;13.126;2022-08-03T08:53:41;1.38;;;1.30;;
41530;SDS011;58990;46.284;13.126;2022-08-03T08:56:11;1.30;;;1.20;;
41530;SDS011;58990;46.284;13.126;2022-08-03T08:58:41;1.23;;;1.15;;
41530;SDS011;58990;46.284;13.126;2022-08-03T09:01:11;1.10;;;1.10;;
41530;SDS011;58990;46.284;13.126;2022-08-03T09:03:36;1.30;;;1.20;;
41530;SDS011;58990;46.284;13.126;2022-08-03T09:06:02;1.48;;;1.38;;
41530;SDS011;58990;46.284;13.126;2022-08-03T09:08:28;1.92;;;1.58;;
41530;SDS011;58990;46.284;13.126;2022-08-03T09:10:55;1.88;;;1.15;;
41530;SDS011;58990;46.284;13.126;2022-08-03T09:13:20;1.55;;;1.42;;
41530;SDS011;58990;46.284;13.126;2022-08-03T09:15:46;2.83;;;1.23;;
41530;SDS011;58990;46.284;13.126;2022-08-03T09:18:20;1.42;;;1.30;;
41530;SDS011;58990;46.284;13.126;2022-08-03T09:20:53;2.83;;;1.40;;
41530;SDS011;58990;46.284;13.126;2022-08-03T09:23:48;1.00;;;1.00;;
41530;SDS011;58990;46.284;13.126;2022-08-03T09:26:19;1.73;;;1.20;;
41530;SDS011;58990;46.284;13.126;2022-08-03T09:29:02;1.38;;;1.23;;
41530;SDS011;58990;46.284;13.126;2022-08-03T09:34:08;2.30;;;1.40;;
41530;SDS011;58990;46.284;13.126;2022-08-03T09:39:19;2.10;;;1.40;;
41530;SDS011;58990;46.284;13.126;2022-08-03T09:42:03;1.17;;;1.10;;
41530;SDS011;58990;46.284;13.126;2022-08-03T09:44:45;4.22;;;1.25;;
41530;SDS011;58990;46.284;13.126;2022-08-03T09:47:13;1.08;;;1.00;;
41530;SDS011;58990;46.284;13.126;2022-08-03T09:49:41;2.22;;;1.40;;
41530;SDS011;58990;46.284;13.126;2022-08-03T09:52:20;1.20;;;1.10;;
41530;SDS011;58990;46.284;13.126;2022-08-03T09:54:50;2.25;;;1.30;;
41530;SDS011;58990;46.284;13.126;2022-08-03T09:57:23;4.75;;;1.60;;
41530;SDS011;58990;46.284;13.126;2022-08-03T09:59:50;1.45;;;1.35;;
41530;SDS011;58990;46.284;13.126;2022-08-03T10:02:20;2.35;;;1.60;;
41530;SDS011;58990;46.284;13.126;2022-08-03T10:04:47;1.52;;;1.40;;
41530;SDS011;58990;46.284;13.126;2022-08-03T10:07:15;1.73;;;1.15;;
41530;SDS011;58990;46.284;13.126;2022-08-03T10:09:51;3.20;;;1.30;;
41530;SDS011;58990;46.284;13.126;2022-08-03T10:12:22;1.58;;;1.30;;
41530;SDS011;58990;46.284;13.126;2022-08-03T10:14:48;1.20;;;1.13;;
41530;SDS011;58990;46.284;13.126;2022-08-03T10:17:14;2.03;;;1.30;;
41530;SDS011;58990;46.284;13.126;2022-08-03T10:19:40;1.50;;;1.40;;
41530;SDS011;58990;46.284;13.126;2022-08-03T10:22:07;1.92;;;1.20;;
41530;SDS011;58990;46.284;13.126;2022-08-03T10:24:38;3.40;;;1.27;;
41530;SDS011;58990;46.284;13.126;2022-08-03T10:27:08;0.90;;;0.85;;
41530;SDS011;58990;46.284;13.126;2022-08-03T10:29:37;1.15;;;1.05;;
41530;SDS011;58990;46.284;13.126;2022-08-03T10:32:09;1.25;;;0.98;;
41530;SDS011;58990;46.284;13.126;2022-08-03T10:34:41;3.13;;;1.05;;
41530;SDS011;58990;46.284;13.126;2022-08-03T10:37:09;0.93;;;0.93;;
41530;SDS011;58990;46.284;13.126;2022-08-03T10:39:36;1.67;;;1.10;;
41530;SDS011;58990;46.284;13.126;2022-08-03T10:42:17;1.17;;;1.15;;
41530;SDS011;58990;46.284;13.126;2022-08-03T10:44:45;2.40;;;0.88;;
41530;SDS011;58990;46.284;13.126;2022-08-03T10:47:12;1.52;;;1.17;;
41530;SDS011;58990;46.284;13.126;2022-08-03T10:49:38;1.15;;;1.00;;
41530;SDS011;58990;46.284;13.126;2022-08-03T10:52:04;1.58;;;1.10;;
41530;SDS011;58990;46.284;13.126;2022-08-03T11:00:17;1.23;;;1.13;;
41530;SDS011;58990;46.284;13.126;2022-08-03T11:05:41;1.95;;;0.90;;
41530;SDS011;58990;46.284;13.126;2022-08-03T11:08:22;1.20;;;1.10;;
41530;SDS011;58990;46.284;13.126;2022-08-03T11:11:00;1.40;;;0.93;;
41530;SDS011;58990;46.284;13.126;2022-08-03T11:19:25;0.90;;;0.90;;
41530;SDS011;58990;46.284;13.126;2022-08-03T11:22:08;1.73;;;1.25;;
41530;SDS011;58990;46.284;13.126;2022-08-03T11:27:19;1.17;;;1.00;;
41530;SDS011;58990;46.284;13.126;2022-08-03T11:35:17;1.38;;;1.20;;
41530;SDS011;58990;46.284;13.126;2022-08-03T11:40:48;4.20;;;1.20;;
41530;SDS011;58990;46.284;13.126;2022-08-03T11:46:08;1.60;;;0.90;;
41530;SDS011;58990;46.284;13.126;2022-08-03T11:51:25;3.67;;;1.10;;
41530;SDS011;58990;46.284;13.126;2022-08-03T11:53:53;1.35;;;1.25;;
41530;SDS011;58990;46.284;13.126;2022-08-03T11:56:44;1.67;;;1.27;;
41530;SDS011;58990;46.284;13.126;2022-08-03T11:59:11;1.88;;;1.10;;
41530;SDS011;58990;46.284;13.126;2022-08-03T12:01:37;1.20;;;1.10;;
41530;SDS011;58990;46.284;13.126;2022-08-03T12:04:03;1.67;;;1.05;;
41530;SDS011;58990;46.284;13.126;2022-08-03T12:06:29;6.20;;;1.48;;
41530;SDS011;58990;46.284;13.126;2022-08-03T12:08:55;1.30;;;1.20;;
41530;SDS011;58990;46.284;13.126;2022-08-03T12:11:20;1.77;;;1.00;;
41530;SDS011;58990;46.284;13.126;2022-08-03T12:13:47;3.83;;;1.10;;
41530;SDS011;58990;46.284;13.126;2022-08-03T12:16:22;1.08;;;1.05;;
41530;SDS011;58990;46.284;13.126;2022-08-03T12:18:59;0.60;;;0.60;;
41530;SDS011;58990;46.284;13.126;2022-08-03T12:21:26;1.23;;;0.70;;
41530;SDS011;58990;46.284;13.126;2022-08-03T12:23:59;1.25;;;0.93;;
41530;SDS011;58990;46.284;13.126;2022-08-03T12:26:27;3.05;;;1.08;;
41530;SDS011;58990;46.284;13.126;2022-08-03T12:28:54;1.27;;;0.90;;
41530;SDS011;58990;46.284;13.126;2022-08-03T12:31:19;1.27;;;0.73;;
41530;SDS011;58990;46.284;13.126;2022-08-03T12:33:55;0.93;;;0.90;;
41530;SDS011;58990;46.284;13.126;2022-08-03T12:36:34;1.25;;;0.80;;
41530;SDS011;58990;46.284;13.126;2022-08-03T12:39:01;2.08;;;1.08;;
41530;SDS011;58990;46.284;13.126;2022-08-03T12:41:30;1.30;;;1.20;;
41530;SDS011;58990;46.284;13.126;2022-08-03T12:44:04;0.93;;;0.90;;
41530;SDS011;58990;46.284;13.126;2022-08-03T12:46:32;0.90;;;0.90;;
41530;SDS011;58990;46.284;13.126;2022-08-03T12:54:20;1.23;;;1.00;;
41530;SDS011;58990;46.284;13.126;2022-08-03T12:59:35;0.75;;;0.75;;
41530;SDS011;58990;46.284;13.126;2022-08-03T13:02:03;1.00;;;0.88;;
41530;SDS011;58990;46.284;13.126;2022-08-03T13:04:30;1.90;;;0.98;;
41530;SDS011;58990;46.284;13.126;2022-08-03T13:09:40;1.95;;;1.02;;
41530;SDS011;58990;46.284;13.126;2022-08-03T13:12:09;2.33;;;1.08;;
41530;SDS011;58990;46.284;13.126;2022-08-03T13:14:37;1.55;;;0.70;;
41530;SDS011;58990;46.284;13.126;2022-08-03T13:17:03;0.77;;;0.70;;
41530;SDS011;58990;46.284;13.126;2022-08-03T13:19:31;1.15;;;1.05;;
41530;SDS011;58990;46.284;13.126;2022-08-03T13:21:57;4.25;;;0.98;;
41530;SDS011;58990;46.284;13.126;2022-08-03T13:24:23;1.75;;;0.77;;
41530;SDS011;58990;46.284;13.126;2022-08-03T13:26:49;2.45;;;0.90;;
41530;SDS011;58990;46.284;13.126;2022-08-03T13:29:15;1.55;;;0.90;;
41530;SDS011;58990;46.284;13.126;2022-08-03T13:31:41;2.17;;;0.90;;
41530;SDS011;58990;46.284;13.126;2022-08-03T13:34:07;1.92;;;0.98;;
41530;SDS011;58990;46.284;13.126;2022-08-03T13:36:33;0.95;;;0.95;;
41530;SDS011;58990;46.284;13.126;2022-08-03T13:38:58;1.83;;;1.08;;
41530;SDS011;58990;46.284;13.126;2022-08-03T13:41:24;1.80;;;1.10;;
41530;SDS011;58990;46.284;13.126;2022-08-03T13:43:49;2.33;;;0.90;;
41530;SDS011;58990;46.284;13.126;2022-08-03T13:46:15;1.20;;;1.10;;
41530;SDS011;58990;46.284;13.126;2022-08-03T13:48:41;5.32;;;1.13;;
41530;SDS011;58990;46.284;13.126;2022-08-03T13:51:07;1.52;;;1.15;;
41530;SDS011;58990;46.284;13.126;2022-08-03T13:53:32;4.38;;;1.13;;
41530;SDS011;58990;46.284;13.126;2022-08-03T13:55:58;8.70;;;1.42;;
41530;SDS011;58990;46.284;13.126;2022-08-03T13:58:23;1.85;;;1.17;;
41530;SDS011;58990;46.284;13.126;2022-08-03T14:00:49;1.10;;;1.00;;
41530;SDS011;58990;46.284;13.126;2022-08-03T14:03:14;1.30;;;1.20;;
41530;SDS011;58990;46.284;13.126;2022-08-03T14:05:40;3.45;;;1.20;;
41530;SDS011;58990;46.284;13.126;2022-08-03T14:08:07;3.85;;;1.20;;
41530;SDS011;58990;46.284;13.126;2022-08-03T14:10:33;2.60;;;1.15;;
41530;SDS011;58990;46.284;13.126;2022-08-03T14:13:00;1.38;;;1.15;;
41530;SDS011;58990;46.284;13.126;2022-08-03T14:15:26;1.85;;;1.05;;
41530;SDS011;58990;46.284;13.126;2022-08-03T14:17:52;1.42;;;1.00;;
41530;SDS011;58990;46.284;13.126;2022-08-03T14:20:18;3.22;;;1.40;;
41530;SDS011;58990;46.284;13.126;2022-08-03T14:22:43;1.55;;;1.17;;
41530;SDS011;58990;46.284;13.126;2022-08-03T14:25:09;1.45;;;0.90;;
41530;SDS011;58990;46.284;13.126;2022-08-03T14:27:34;1.95;;;1.05;;
41530;SDS011;58990;46.284;13.126;2022-08-03T14:30:01;1.25;;;1.00;;
41530;SDS011;58990;46.284;13.126;2022-08-03T14:32:26;1.77;;;1.25;;
41530;SDS011;58990;46.284;13.126;2022-08-03T14:34:52;2.25;;;0.80;;
41530;SDS011;58990;46.284;13.126;2022-08-03T14:37:18;2.38;;;1.00;;
41530;SDS011;58990;46.284;13.126;2022-08-03T14:39:43;1.42;;;0.90;;
41530;SDS011;58990;46.284;13.126;2022-08-03T14:42:10;3.33;;;0.93;;
41530;SDS011;58990;46.284;13.126;2022-08-03T14:44:36;0.98;;;0.82;;
41530;SDS011;58990;46.284;13.126;2022-08-03T14:47:01;0.95;;;0.80;;
41530;SDS011;58990;46.284;13.126;2022-08-03T14:49:27;2.88;;;0.95;;
41530;SDS011;58990;46.284;13.126;2022-08-03T14:51:52;2.30;;;0.70;;
41530;SDS011;58990;46.284;13.126;2022-08-03T14:54:18;1.05;;;0.80;;
41530;SDS011;58990;46.284;13.126;2022-08-03T14:56:43;0.95;;;0.82;;
41530;SDS011;58990;46.284;13.126;2022-08-03T14:59:09;2.25;;;0.88;;
41530;SDS011;58990;46.284;13.126;2022-08-03T15:01:34;1.00;;;0.90;;
41530;SDS011;58990;46.284;13.126;2022-08-03T15:04:00;1.80;;;1.02;;
41530;SDS011;58990;46.284;13.126;2022-08-03T15:06:25;2.50;;;0.80;;
41530;SDS011;58990;46.284;13.126;2022-08-03T15:08:51;2.78;;;1.00;;
41530;SDS011;58990;46.284;13.126;2022-08-03T15:11:16;1.35;;;0.90;;
41530;SDS011;58990;46.284;13.126;2022-08-03T15:13:42;1.63;;;1.30;;
41530;SDS011;58990;46.284;13.126;2022-08-03T15:16:07;1.77;;;1.10;;
41530;SDS011;58990;46.284;13.126;2022-08-03T15:18:33;1.13;;;1.02;;
41530;SDS011;58990;46.284;13.126;2022-08-03T15:20:59;4.00;;;1.10;;
41530;SDS011;58990;46.284;13.126;2022-08-03T15:23:24;0.80;;;0.65;;
41530;SDS011;58990;46.284;13.126;2022-08-03T15:25:50;1.95;;;0.88;;
41530;SDS011;58990;46.284;13.126;2022-08-03T15:28:16;3.35;;;1.30;;
41530;SDS011;58990;46.284;13.126;2022-08-03T15:30:41;1.65;;;1.10;;
41530;SDS011;58990;46.284;13.126;2022-08-03T15:33:07;1.25;;;0.90;;
41530;SDS011;58990;46.284;13.126;2022-08-03T15:35:33;2.45;;;1.10;;
41530;SDS011;58990;46.284;13.126;2022-08-03T15:37:59;2.22;;;1.20;;
41530;SDS011;58990;46.284;13.126;2022-08-03T15:40:24;1.33;;;1.00;;
41530;SDS011;58990;46.284;13.126;2022-08-03T15:42:50;2.83;;;0.90;;
41530;SDS011;58990;46.284;13.126;2022-08-03T15:45:15;1.52;;;1.20;;